createdAt,value
2023-04-13T00:07:41.144Z,35.17
2023-04-13T00:13:21.230Z,35.19
2023-04-13T00:19:03.796Z,35.24
2023-04-13T00:25:01.535Z,35.24
2023-04-13T00:30:44.293Z,35.23
2023-04-13T00:36:27.492Z,35.23
2023-04-13T00:42:27.291Z,35.23
2023-04-13T00:48:18.480Z,35.32
2023-04-13T00:59:57.034Z,35.32
2023-04-13T01:05:39.609Z,35.29
2023-04-13T01:12:15.107Z,35.29
2023-04-13T01:17:57.799Z,35.34
2023-04-13T01:23:40.222Z,35.40
2023-04-13T01:29:37.572Z,35.32
2023-04-13T01:39:58.310Z,35.27
2023-04-13T01:45:06.430Z,35.28
2023-04-13T01:50:13.771Z,35.26
2023-04-13T01:55:34.096Z,35.18
2023-04-13T02:00:51.514Z,35.12
2023-04-13T02:06:31.048Z,35.25
2023-04-13T02:12:28.653Z,35.16
2023-04-13T02:17:43.303Z,35.17
2023-04-13T02:22:56.282Z,35.19
2023-04-13T02:28:03.815Z,35.24
2023-04-13T02:33:12.639Z,35.20
2023-04-13T02:38:35.136Z,35.26
2023-04-13T02:43:42.734Z,35.18
2023-04-13T02:48:50.070Z,35.10
2023-04-13T02:53:58.013Z,35.10
2023-04-13T02:59:40.843Z,35.24
2023-04-13T03:05:23.787Z,35.26
2023-04-13T03:11:56.966Z,35.17
2023-04-13T03:15:44.278Z,35.20
2023-04-13T03:20:51.640Z,35.19
2023-04-13T03:25:58.904Z,35.20
2023-04-13T03:31:06.352Z,35.21
2023-04-13T03:36:13.448Z,35.24
2023-04-13T03:41:20.633Z,35.26
2023-04-13T03:46:27.937Z,35.22
2023-04-13T03:51:35.269Z,35.19
2023-04-13T03:56:42.484Z,35.17
2023-04-13T04:01:49.915Z,35.22
2023-04-13T04:06:57.064Z,35.23
2023-04-13T04:12:04.239Z,35.23
2023-04-13T04:17:11.448Z,35.19
2023-04-13T04:22:18.664Z,35.19
2023-04-13T04:27:25.912Z,35.23
2023-04-13T04:32:33.167Z,35.19
2023-04-13T04:37:40.395Z,35.15
2023-04-13T04:42:47.667Z,35.16
2023-04-13T04:47:54.974Z,35.10
2023-04-13T04:53:02.152Z,35.13
2023-04-13T04:58:09.322Z,35.19
2023-04-13T05:03:16.636Z,35.13
2023-04-13T05:08:23.782Z,35.18
2023-04-13T05:13:31.086Z,35.23
2023-04-13T05:18:38.277Z,35.18
2023-04-13T05:23:45.432Z,35.14
2023-04-13T05:28:52.752Z,35.18
2023-04-13T05:34:00.139Z,35.19
2023-04-13T05:39:07.197Z,35.19
2023-04-13T05:44:14.374Z,35.10
2023-04-13T05:49:21.628Z,35.16
2023-04-13T05:54:28.758Z,35.21
2023-04-13T05:59:35.942Z,35.01
2023-04-13T06:04:43.210Z,35.16
2023-04-13T06:09:50.293Z,35.16
2023-04-13T06:14:57.466Z,35.23
2023-04-13T06:20:04.715Z,35.20
2023-04-13T06:25:11.865Z,35.05
2023-04-13T06:30:19.095Z,35.28
2023-04-13T06:35:26.267Z,35.13
2023-04-13T06:40:33.422Z,35.15
2023-04-13T06:45:41.384Z,35.11
2023-04-13T06:50:48.604Z,35.13
2023-04-13T06:55:55.756Z,35.10
2023-04-13T07:01:03.197Z,35.01
2023-04-13T07:06:10.282Z,35.06
2023-04-13T07:11:17.515Z,35.07
2023-04-13T07:16:24.762Z,34.97
2023-04-13T07:21:31.958Z,35.04
2023-04-13T07:26:39.083Z,34.96
2023-04-13T07:31:46.324Z,34.93
2023-04-13T07:36:53.501Z,34.98
2023-04-13T07:42:00.745Z,35.33
2023-04-13T07:47:08.084Z,34.95
2023-04-13T07:52:15.240Z,34.93
2023-04-13T07:57:22.424Z,35.03
2023-04-13T08:02:29.899Z,35.06
2023-04-13T08:07:37.020Z,34.89
2023-04-13T08:12:44.299Z,34.97
2023-04-13T08:17:51.595Z,34.93
2023-04-13T08:22:58.857Z,35.02
2023-04-13T08:28:06.169Z,34.91
2023-04-13T08:33:13.443Z,34.89
2023-04-13T08:38:20.681Z,34.90
2023-04-13T08:43:27.879Z,34.90
2023-04-13T08:48:50.032Z,34.95
2023-04-13T08:53:42.460Z,34.82
2023-04-13T08:58:49.514Z,34.81
2023-04-13T09:03:56.833Z,34.84
2023-04-13T09:09:03.893Z,36.09
2023-04-13T09:14:11.102Z,35.48
2023-04-13T09:19:18.272Z,34.99
2023-04-13T09:24:25.556Z,35.04
2023-04-13T09:29:32.729Z,34.81
2023-04-13T09:34:39.889Z,34.77
2023-04-13T09:39:47.121Z,34.16
2023-04-13T09:44:54.295Z,33.92
2023-04-13T09:50:01.543Z,33.87
2023-04-13T09:55:08.781Z,33.38
2023-04-13T10:00:17.719Z,33.49
2023-04-13T10:05:23.297Z,33.65
2023-04-13T10:10:30.560Z,33.28
2023-04-13T10:15:37.890Z,33.59
2023-04-13T10:20:45.082Z,33.14
2023-04-13T10:25:52.414Z,33.40
2023-04-13T10:30:59.660Z,33.52
2023-04-13T10:36:06.829Z,32.82
2023-04-13T10:41:14.033Z,32.94
2023-04-13T10:46:21.220Z,32.97
2023-04-13T10:51:28.373Z,32.87
2023-04-13T10:56:35.624Z,32.85
2023-04-13T11:01:42.812Z,32.75
2023-04-13T11:06:49.967Z,32.75
2023-04-13T11:12:32.444Z,33.30
2023-04-13T11:17:39.832Z,33.60
2023-04-13T11:22:50.202Z,33.33
2023-04-13T11:27:58.485Z,33.84
2023-04-13T11:33:05.978Z,33.82
2023-04-13T11:38:13.333Z,33.94
2023-04-13T11:43:20.747Z,34.00
2023-04-13T11:48:28.041Z,34.01
2023-04-13T11:53:35.348Z,34.07
2023-04-13T11:58:42.581Z,34.16
2023-04-13T12:09:02.754Z,34.26
2023-04-13T12:14:10.245Z,33.84
2023-04-13T12:19:13.524Z,33.77
2023-04-13T12:24:18.974Z,33.77
2023-04-13T12:29:25.828Z,33.65
2023-04-13T12:34:33.026Z,33.58
2023-04-13T12:39:40.246Z,33.81
2023-04-13T12:44:47.587Z,33.75
2023-04-13T12:49:54.737Z,33.78
2023-04-13T12:55:02.252Z,33.85
2023-04-13T13:00:12.922Z,33.83
2023-04-13T13:05:19.239Z,33.91
2023-04-13T13:10:30.000Z,33.77
2023-04-13T13:15:34.077Z,33.88
2023-04-13T13:20:41.688Z,33.97
2023-04-13T13:26:07.571Z,34.14
2023-04-13T13:30:56.223Z,34.39
2023-04-13T13:36:05.577Z,34.49
2023-04-13T13:41:24.345Z,34.74
2023-04-13T13:46:26.038Z,34.87
2023-04-13T13:51:33.705Z,34.71
2023-04-13T13:56:41.393Z,34.67
2023-04-13T14:01:49.056Z,34.68
2023-04-13T14:06:56.329Z,34.61
2023-04-13T14:12:03.604Z,34.55
2023-04-13T14:17:14.233Z,34.56
2023-04-13T14:22:26.521Z,34.51
2023-04-13T14:27:48.971Z,34.54
2023-04-13T14:33:01.476Z,34.61
2023-04-13T14:38:30.024Z,34.59
2023-04-13T14:43:21.627Z,34.64
2023-04-13T14:48:29.251Z,34.65
2023-04-13T14:53:36.417Z,34.70
2023-04-13T14:58:43.646Z,34.66
2023-04-13T15:03:51.155Z,34.68
2023-04-13T15:08:58.789Z,34.70
2023-04-13T15:14:05.566Z,34.58
2023-04-13T15:19:17.709Z,34.28
2023-04-13T15:24:24.970Z,34.51
2023-04-13T15:29:32.365Z,34.42
2023-04-13T15:34:39.601Z,34.42
2023-04-13T15:39:49.581Z,34.37
2023-04-13T15:44:55.420Z,34.49
2023-04-13T15:50:02.577Z,34.45
2023-04-13T15:55:10.024Z,34.29
2023-04-13T16:00:17.517Z,34.33
2023-04-13T16:05:24.905Z,34.33
2023-04-13T16:10:32.113Z,34.37
2023-04-13T16:15:42.363Z,34.36
2023-04-13T16:20:49.156Z,34.28
2023-04-13T16:25:56.507Z,34.26
2023-04-13T16:31:03.836Z,34.17
2023-04-13T16:36:11.110Z,35.45
2023-04-13T16:41:19.369Z,34.78
2023-04-13T16:46:26.751Z,35.11
2023-04-13T16:51:33.999Z,34.93
2023-04-13T16:56:41.210Z,34.62
2023-04-13T17:01:49.252Z,34.42
2023-04-13T17:06:56.565Z,34.25
2023-04-13T17:12:04.013Z,34.15
2023-04-13T17:17:11.472Z,34.01
2023-04-13T17:22:18.730Z,33.89
2023-04-13T17:27:26.567Z,34.16
2023-04-13T17:32:34.300Z,34.00
2023-04-13T17:37:41.592Z,33.81
2023-04-13T17:42:48.747Z,33.93
2023-04-13T17:47:57.138Z,33.55
2023-04-13T17:53:04.808Z,33.60
2023-04-13T17:58:12.031Z,33.51
2023-04-13T18:03:20.198Z,33.33
2023-04-13T18:08:27.507Z,33.42
2023-04-13T18:13:35.194Z,33.78
2023-04-13T18:18:42.902Z,33.63
2023-04-13T18:23:50.547Z,33.73
2023-04-13T18:28:58.145Z,33.58
2023-04-13T18:34:06.174Z,33.56
2023-04-13T18:39:13.600Z,33.45
2023-04-13T18:44:20.904Z,33.46
2023-04-13T18:49:28.293Z,33.50
2023-04-13T18:54:35.822Z,33.26
2023-04-13T18:59:43.173Z,33.28
2023-04-13T19:04:50.591Z,33.05
2023-04-13T19:09:58.102Z,33.01
2023-04-13T19:15:05.751Z,32.96
2023-04-13T19:20:13.563Z,32.98
2023-04-13T19:25:21.223Z,32.93
2023-04-13T19:30:28.929Z,32.97
2023-04-13T19:35:36.593Z,33.04
2023-04-13T19:40:45.533Z,33.08
2023-04-13T19:45:53.200Z,33.23
2023-04-13T19:51:00.852Z,33.24
2023-04-13T19:56:08.450Z,33.23
2023-04-13T20:01:16.073Z,33.67
2023-04-13T20:06:24.046Z,33.49
2023-04-13T20:11:31.413Z,33.59
2023-04-13T20:16:38.704Z,33.45
2023-04-13T20:21:46.271Z,33.48
2023-04-13T20:26:53.753Z,33.36
2023-04-13T20:32:01.227Z,33.27
2023-04-13T20:37:08.651Z,33.62
2023-04-13T20:42:17.487Z,33.20
2023-04-13T20:47:26.391Z,33.20
2023-04-13T20:52:33.614Z,32.99
2023-04-13T20:57:40.812Z,32.87
2023-04-13T21:02:48.116Z,32.85
2023-04-13T21:07:57.448Z,32.79
2023-04-13T21:13:06.576Z,32.69
2023-04-13T21:18:13.846Z,32.79
2023-04-13T21:23:21.332Z,32.60
2023-04-13T21:28:28.645Z,32.68
2023-04-13T21:33:35.872Z,32.81
2023-04-13T21:38:43.187Z,32.59
2023-04-13T21:44:02.232Z,32.72
2023-04-13T21:49:47.500Z,32.49
2023-04-13T21:55:31.601Z,32.48
2023-04-13T22:01:19.343Z,32.50
2023-04-13T22:06:48.537Z,32.52
2023-04-13T22:12:31.157Z,32.51
2023-04-13T22:18:12.430Z,32.59
2023-04-13T22:23:11.896Z,32.70
2023-04-13T22:28:28.970Z,32.75
2023-04-13T22:33:41.681Z,32.75
2023-04-13T22:39:30.349Z,32.88
2023-04-13T22:49:33.491Z,32.91
2023-04-13T22:50:49.158Z,33.06
2023-04-13T22:55:30.539Z,33.11
2023-04-13T23:01:59.266Z,33.15
2023-04-13T23:06:38.314Z,33.25
2023-04-13T23:11:53.734Z,33.39
2023-04-13T23:17:16.562Z,33.45
2023-04-13T23:22:23.982Z,33.60
2023-04-13T23:27:33.714Z,33.68
2023-04-13T23:32:51.528Z,33.72
2023-04-13T23:37:54.269Z,33.81
2023-04-13T23:43:01.587Z,33.87
2023-04-13T23:48:08.789Z,34.04
2023-04-13T23:53:16.099Z,34.24
2023-04-13T23:58:23.363Z,34.39
